sensor_id;sensor_type;location;lat;lon;timestamp;P1;durP1;ratioP1;P2;durP2;ratioP2
66095;SDS011;53861;53.422;14.530;2024-03-06T00:02:11;36.60;;;14.82;;
66095;SDS011;53861;53.422;14.530;2024-03-06T00:04:39;36.78;;;14.30;;
66095;SDS011;53861;53.422;14.530;2024-03-06T00:07:06;39.97;;;15.63;;
66095;SDS011;53861;53.422;14.530;2024-03-06T00:09:33;36.85;;;15.13;;
66095;SDS011;53861;53.422;14.530;2024-03-06T00:12:02;40.15;;;16.00;;
66095;SDS011;53861;53.422;14.530;2024-03-06T00:14:31;36.85;;;15.15;;
66095;SDS011;53861;53.422;14.530;2024-03-06T00:17:02;41.17;;;15.93;;
66095;SDS011;53861;53.422;14.530;2024-03-06T00:19:30;38.88;;;15.68;;
66095;SDS011;53861;53.422;14.530;2024-03-06T00:21:57;40.10;;;16.00;;
66095;SDS011;53861;53.422;14.530;2024-03-06T00:24:25;40.92;;;16.33;;
66095;SDS011;53861;53.422;14.530;2024-03-06T00:26:52;41.90;;;17.73;;
66095;SDS011;53861;53.422;14.530;2024-03-06T00:29:19;43.03;;;16.73;;
66095;SDS011;53861;53.422;14.530;2024-03-06T00:31:48;43.08;;;18.35;;
66095;SDS011;53861;53.422;14.530;2024-03-06T00:34:16;46.20;;;18.63;;
66095;SDS011;53861;53.422;14.530;2024-03-06T00:36:43;44.03;;;17.90;;
66095;SDS011;53861;53.422;14.530;2024-03-06T00:39:11;44.15;;;18.52;;
66095;SDS011;53861;53.422;14.530;2024-03-06T00:41:40;46.38;;;19.05;;
66095;SDS011;53861;53.422;14.530;2024-03-06T00:44:07;47.20;;;20.10;;
66095;SDS011;53861;53.422;14.530;2024-03-06T00:46:35;52.05;;;19.58;;
66095;SDS011;53861;53.422;14.530;2024-03-06T00:49:03;46.38;;;19.27;;
66095;SDS011;53861;53.422;14.530;2024-03-06T00:51:31;46.92;;;18.85;;
66095;SDS011;53861;53.422;14.530;2024-03-06T00:54:01;47.55;;;19.05;;
66095;SDS011;53861;53.422;14.530;2024-03-06T00:56:30;43.60;;;18.58;;
66095;SDS011;53861;53.422;14.530;2024-03-06T00:58:57;41.78;;;17.65;;
66095;SDS011;53861;53.422;14.530;2024-03-06T01:01:25;43.42;;;18.52;;
66095;SDS011;53861;53.422;14.530;2024-03-06T01:03:53;48.38;;;19.88;;
66095;SDS011;53861;53.422;14.530;2024-03-06T01:06:22;50.42;;;20.35;;
66095;SDS011;53861;53.422;14.530;2024-03-06T01:08:51;46.90;;;19.70;;
66095;SDS011;53861;53.422;14.530;2024-03-06T01:11:20;49.95;;;19.30;;
66095;SDS011;53861;53.422;14.530;2024-03-06T01:13:47;47.75;;;19.27;;
66095;SDS011;53861;53.422;14.530;2024-03-06T01:16:14;47.72;;;19.30;;
66095;SDS011;53861;53.422;14.530;2024-03-06T01:18:42;49.58;;;20.17;;
66095;SDS011;53861;53.422;14.530;2024-03-06T01:21:09;44.55;;;18.67;;
66095;SDS011;53861;53.422;14.530;2024-03-06T01:23:38;45.40;;;19.60;;
66095;SDS011;53861;53.422;14.530;2024-03-06T01:26:05;50.17;;;19.98;;
66095;SDS011;53861;53.422;14.530;2024-03-06T01:28:33;46.17;;;19.52;;
66095;SDS011;53861;53.422;14.530;2024-03-06T01:31:00;44.55;;;18.33;;
66095;SDS011;53861;53.422;14.530;2024-03-06T01:33:27;43.58;;;19.75;;
66095;SDS011;53861;53.422;14.530;2024-03-06T01:35:55;51.35;;;20.77;;
66095;SDS011;53861;53.422;14.530;2024-03-06T01:38:22;45.17;;;20.10;;
66095;SDS011;53861;53.422;14.530;2024-03-06T01:40:51;45.92;;;19.38;;
66095;SDS011;53861;53.422;14.530;2024-03-06T01:43:22;48.67;;;20.63;;
66095;SDS011;53861;53.422;14.530;2024-03-06T01:45:50;50.70;;;20.83;;
66095;SDS011;53861;53.422;14.530;2024-03-06T01:48:20;46.40;;;20.23;;
66095;SDS011;53861;53.422;14.530;2024-03-06T01:50:51;48.92;;;20.15;;
66095;SDS011;53861;53.422;14.530;2024-03-06T01:53:20;51.03;;;20.00;;
66095;SDS011;53861;53.422;14.530;2024-03-06T01:55:51;53.13;;;20.25;;
66095;SDS011;53861;53.422;14.530;2024-03-06T01:58:19;44.42;;;18.70;;
66095;SDS011;53861;53.422;14.530;2024-03-06T02:00:48;45.17;;;19.85;;
66095;SDS011;53861;53.422;14.530;2024-03-06T02:03:16;44.42;;;18.08;;
66095;SDS011;53861;53.422;14.530;2024-03-06T02:05:44;39.60;;;18.38;;
66095;SDS011;53861;53.422;14.530;2024-03-06T02:08:15;42.72;;;17.70;;
66095;SDS011;53861;53.422;14.530;2024-03-06T02:10:43;44.35;;;18.52;;
66095;SDS011;53861;53.422;14.530;2024-03-06T02:13:13;43.35;;;18.52;;
66095;SDS011;53861;53.422;14.530;2024-03-06T02:15:41;44.33;;;18.13;;
66095;SDS011;53861;53.422;14.530;2024-03-06T02:18:11;39.10;;;16.08;;
66095;SDS011;53861;53.422;14.530;2024-03-06T02:20:39;44.45;;;17.20;;
66095;SDS011;53861;53.422;14.530;2024-03-06T02:23:07;41.42;;;17.05;;
66095;SDS011;53861;53.422;14.530;2024-03-06T02:25:34;43.78;;;18.40;;
66095;SDS011;53861;53.422;14.530;2024-03-06T02:28:02;44.20;;;18.05;;
66095;SDS011;53861;53.422;14.530;2024-03-06T02:30:31;41.08;;;17.67;;
66095;SDS011;53861;53.422;14.530;2024-03-06T02:33:02;39.55;;;16.77;;
66095;SDS011;53861;53.422;14.530;2024-03-06T02:35:31;40.97;;;15.95;;
66095;SDS011;53861;53.422;14.530;2024-03-06T02:38:00;38.85;;;16.25;;
66095;SDS011;53861;53.422;14.530;2024-03-06T02:40:28;39.13;;;15.63;;
66095;SDS011;53861;53.422;14.530;2024-03-06T02:42:55;39.47;;;16.48;;
66095;SDS011;53861;53.422;14.530;2024-03-06T02:45:23;37.35;;;15.40;;
66095;SDS011;53861;53.422;14.530;2024-03-06T02:47:50;33.85;;;14.63;;
66095;SDS011;53861;53.422;14.530;2024-03-06T02:50:18;39.90;;;16.58;;
66095;SDS011;53861;53.422;14.530;2024-03-06T02:52:46;37.03;;;15.60;;
66095;SDS011;53861;53.422;14.530;2024-03-06T02:55:15;43.88;;;15.65;;
66095;SDS011;53861;53.422;14.530;2024-03-06T02:57:42;37.85;;;16.70;;
66095;SDS011;53861;53.422;14.530;2024-03-06T03:00:10;40.40;;;16.70;;
66095;SDS011;53861;53.422;14.530;2024-03-06T03:02:39;37.45;;;16.80;;
66095;SDS011;53861;53.422;14.530;2024-03-06T03:05:07;35.78;;;16.00;;
66095;SDS011;53861;53.422;14.530;2024-03-06T03:07:34;36.00;;;14.88;;
66095;SDS011;53861;53.422;14.530;2024-03-06T03:10:02;35.72;;;15.60;;
66095;SDS011;53861;53.422;14.530;2024-03-06T03:12:31;41.10;;;16.40;;
66095;SDS011;53861;53.422;14.530;2024-03-06T03:15:01;40.20;;;16.70;;
66095;SDS011;53861;53.422;14.530;2024-03-06T03:17:29;42.05;;;17.00;;
66095;SDS011;53861;53.422;14.530;2024-03-06T03:19:56;36.80;;;16.65;;
66095;SDS011;53861;53.422;14.530;2024-03-06T03:22:23;40.70;;;17.65;;
66095;SDS011;53861;53.422;14.530;2024-03-06T03:24:51;48.78;;;18.00;;
66095;SDS011;53861;53.422;14.530;2024-03-06T03:27:18;40.58;;;17.90;;
66095;SDS011;53861;53.422;14.530;2024-03-06T03:29:47;47.17;;;18.17;;
66095;SDS011;53861;53.422;14.530;2024-03-06T03:32:14;44.35;;;17.85;;
66095;SDS011;53861;53.422;14.530;2024-03-06T03:34:42;43.10;;;17.98;;
66095;SDS011;53861;53.422;14.530;2024-03-06T03:37:09;43.72;;;17.95;;
66095;SDS011;53861;53.422;14.530;2024-03-06T03:39:36;41.22;;;17.17;;
66095;SDS011;53861;53.422;14.530;2024-03-06T03:42:04;40.60;;;17.17;;
66095;SDS011;53861;53.422;14.530;2024-03-06T03:44:32;43.25;;;17.17;;
66095;SDS011;53861;53.422;14.530;2024-03-06T03:47:00;42.90;;;18.20;;
66095;SDS011;53861;53.422;14.530;2024-03-06T03:49:29;46.60;;;18.17;;
66095;SDS011;53861;53.422;14.530;2024-03-06T03:51:57;43.58;;;16.73;;
66095;SDS011;53861;53.422;14.530;2024-03-06T03:54:24;41.13;;;17.17;;
66095;SDS011;53861;53.422;14.530;2024-03-06T03:56:51;40.58;;;16.85;;
66095;SDS011;53861;53.422;14.530;2024-03-06T03:59:19;40.92;;;16.95;;
66095;SDS011;53861;53.422;14.530;2024-03-06T04:01:46;41.85;;;17.45;;
66095;SDS011;53861;53.422;14.530;2024-03-06T04:04:15;41.88;;;16.30;;
66095;SDS011;53861;53.422;14.530;2024-03-06T04:06:42;48.22;;;17.63;;
66095;SDS011;53861;53.422;14.530;2024-03-06T04:09:11;41.92;;;16.33;;
66095;SDS011;53861;53.422;14.530;2024-03-06T04:14:45;49.70;;;17.98;;
66095;SDS011;53861;53.422;14.530;2024-03-06T04:17:12;47.88;;;18.45;;
66095;SDS011;53861;53.422;14.530;2024-03-06T04:19:42;41.70;;;17.20;;
66095;SDS011;53861;53.422;14.530;2024-03-06T04:22:09;47.38;;;19.00;;
66095;SDS011;53861;53.422;14.530;2024-03-06T04:24:36;44.58;;;17.52;;
66095;SDS011;53861;53.422;14.530;2024-03-06T04:27:08;45.65;;;18.60;;
66095;SDS011;53861;53.422;14.530;2024-03-06T04:29:35;50.03;;;18.95;;
66095;SDS011;53861;53.422;14.530;2024-03-06T04:32:03;38.03;;;16.02;;
66095;SDS011;53861;53.422;14.530;2024-03-06T04:34:30;40.40;;;15.50;;
66095;SDS011;53861;53.422;14.530;2024-03-06T04:36:59;42.10;;;17.25;;
66095;SDS011;53861;53.422;14.530;2024-03-06T04:39:28;45.70;;;19.02;;
66095;SDS011;53861;53.422;14.530;2024-03-06T04:41:55;50.70;;;17.65;;
66095;SDS011;53861;53.422;14.530;2024-03-06T04:44:22;54.97;;;19.58;;
66095;SDS011;53861;53.422;14.530;2024-03-06T04:46:50;50.60;;;18.45;;
66095;SDS011;53861;53.422;14.530;2024-03-06T04:49:17;44.58;;;17.73;;
66095;SDS011;53861;53.422;14.530;2024-03-06T04:51:45;51.00;;;18.35;;
66095;SDS011;53861;53.422;14.530;2024-03-06T04:54:13;41.15;;;17.25;;
66095;SDS011;53861;53.422;14.530;2024-03-06T04:56:41;43.85;;;16.95;;
66095;SDS011;53861;53.422;14.530;2024-03-06T04:59:08;50.80;;;18.10;;
66095;SDS011;53861;53.422;14.530;2024-03-06T05:01:35;52.22;;;18.30;;
66095;SDS011;53861;53.422;14.530;2024-03-06T05:04:03;52.17;;;22.38;;
66095;SDS011;53861;53.422;14.530;2024-03-06T05:06:30;48.38;;;19.70;;
66095;SDS011;53861;53.422;14.530;2024-03-06T05:08:58;51.25;;;20.45;;
66095;SDS011;53861;53.422;14.530;2024-03-06T05:11:26;52.28;;;19.73;;
66095;SDS011;53861;53.422;14.530;2024-03-06T05:13:54;49.70;;;19.10;;
66095;SDS011;53861;53.422;14.530;2024-03-06T05:16:21;48.30;;;18.65;;
66095;SDS011;53861;53.422;14.530;2024-03-06T05:18:49;46.55;;;18.77;;
66095;SDS011;53861;53.422;14.530;2024-03-06T05:21:17;44.33;;;17.98;;
66095;SDS011;53861;53.422;14.530;2024-03-06T05:23:44;46.03;;;17.38;;
66095;SDS011;53861;53.422;14.530;2024-03-06T05:26:11;44.90;;;18.05;;
66095;SDS011;53861;53.422;14.530;2024-03-06T05:28:40;45.65;;;18.40;;
66095;SDS011;53861;53.422;14.530;2024-03-06T05:31:15;56.08;;;21.48;;
66095;SDS011;53861;53.422;14.530;2024-03-06T05:33:43;51.85;;;19.60;;
66095;SDS011;53861;53.422;14.530;2024-03-06T05:36:11;53.88;;;21.50;;
66095;SDS011;53861;53.422;14.530;2024-03-06T05:38:40;51.45;;;20.85;;
66095;SDS011;53861;53.422;14.530;2024-03-06T05:41:08;51.30;;;20.10;;
66095;SDS011;53861;53.422;14.530;2024-03-06T05:43:35;57.40;;;22.55;;
66095;SDS011;53861;53.422;14.530;2024-03-06T05:46:04;59.72;;;22.30;;
66095;SDS011;53861;53.422;14.530;2024-03-06T05:48:32;71.88;;;25.00;;
66095;SDS011;53861;53.422;14.530;2024-03-06T05:50:59;60.50;;;21.90;;
66095;SDS011;53861;53.422;14.530;2024-03-06T05:53:27;63.97;;;21.35;;
66095;SDS011;53861;53.422;14.530;2024-03-06T05:55:54;66.45;;;22.38;;
66095;SDS011;53861;53.422;14.530;2024-03-06T05:58:21;59.65;;;22.48;;
66095;SDS011;53861;53.422;14.530;2024-03-06T06:00:49;62.80;;;21.73;;
66095;SDS011;53861;53.422;14.530;2024-03-06T06:03:18;61.78;;;21.38;;
66095;SDS011;53861;53.422;14.530;2024-03-06T06:05:45;58.47;;;20.80;;
66095;SDS011;53861;53.422;14.530;2024-03-06T06:08:12;57.17;;;21.70;;
66095;SDS011;53861;53.422;14.530;2024-03-06T06:10:40;54.83;;;21.20;;
66095;SDS011;53861;53.422;14.530;2024-03-06T06:13:07;56.28;;;20.92;;
66095;SDS011;53861;53.422;14.530;2024-03-06T06:15:34;58.85;;;22.38;;
66095;SDS011;53861;53.422;14.530;2024-03-06T06:18:04;53.92;;;21.00;;
66095;SDS011;53861;53.422;14.530;2024-03-06T06:20:33;55.22;;;20.98;;
66095;SDS011;53861;53.422;14.530;2024-03-06T06:23:02;83.95;;;30.77;;
66095;SDS011;53861;53.422;14.530;2024-03-06T06:25:29;55.60;;;22.20;;
66095;SDS011;53861;53.422;14.530;2024-03-06T06:27:56;60.85;;;22.52;;
66095;SDS011;53861;53.422;14.530;2024-03-06T06:30:25;58.45;;;21.67;;
66095;SDS011;53861;53.422;14.530;2024-03-06T06:32:52;53.72;;;21.33;;
66095;SDS011;53861;53.422;14.530;2024-03-06T06:35:20;51.78;;;21.17;;
66095;SDS011;53861;53.422;14.530;2024-03-06T06:37:49;60.00;;;21.13;;
66095;SDS011;53861;53.422;14.530;2024-03-06T06:40:16;62.05;;;21.58;;
66095;SDS011;53861;53.422;14.530;2024-03-06T06:42:45;58.55;;;20.48;;
66095;SDS011;53861;53.422;14.530;2024-03-06T06:45:15;48.75;;;19.85;;
66095;SDS011;53861;53.422;14.530;2024-03-06T06:47:45;44.55;;;18.98;;
66095;SDS011;53861;53.422;14.530;2024-03-06T06:50:13;54.38;;;21.55;;
66095;SDS011;53861;53.422;14.530;2024-03-06T06:52:40;51.42;;;20.50;;
66095;SDS011;53861;53.422;14.530;2024-03-06T06:55:09;62.50;;;22.77;;
66095;SDS011;53861;53.422;14.530;2024-03-06T06:57:37;51.30;;;22.05;;
66095;SDS011;53861;53.422;14.530;2024-03-06T07:00:05;53.60;;;21.23;;
66095;SDS011;53861;53.422;14.530;2024-03-06T07:02:37;53.53;;;18.70;;
66095;SDS011;53861;53.422;14.530;2024-03-06T07:05:05;47.00;;;19.00;;
66095;SDS011;53861;53.422;14.530;2024-03-06T07:07:33;51.33;;;20.70;;
66095;SDS011;53861;53.422;14.530;2024-03-06T07:10:01;53.03;;;20.38;;
66095;SDS011;53861;53.422;14.530;2024-03-06T07:12:31;59.67;;;19.58;;
66095;SDS011;53861;53.422;14.530;2024-03-06T07:14:58;54.65;;;20.25;;
66095;SDS011;53861;53.422;14.530;2024-03-06T07:17:39;56.13;;;23.52;;
66095;SDS011;53861;53.422;14.530;2024-03-06T07:20:12;44.67;;;19.52;;
66095;SDS011;53861;53.422;14.530;2024-03-06T07:22:43;54.33;;;23.13;;
66095;SDS011;53861;53.422;14.530;2024-03-06T07:25:10;60.63;;;24.70;;
66095;SDS011;53861;53.422;14.530;2024-03-06T07:27:43;63.55;;;25.00;;
66095;SDS011;53861;53.422;14.530;2024-03-06T07:30:11;69.57;;;28.90;;
66095;SDS011;53861;53.422;14.530;2024-03-06T07:32:42;66.25;;;26.95;;
66095;SDS011;53861;53.422;14.530;2024-03-06T07:35:12;61.35;;;24.92;;
66095;SDS011;53861;53.422;14.530;2024-03-06T07:37:39;52.78;;;23.83;;
66095;SDS011;53861;53.422;14.530;2024-03-06T07:40:10;56.38;;;22.02;;
66095;SDS011;53861;53.422;14.530;2024-03-06T07:42:38;57.20;;;22.63;;
66095;SDS011;53861;53.422;14.530;2024-03-06T07:45:08;59.00;;;22.08;;
66095;SDS011;53861;53.422;14.530;2024-03-06T07:47:36;56.72;;;20.88;;
66095;SDS011;53861;53.422;14.530;2024-03-06T07:50:04;56.40;;;21.42;;
66095;SDS011;53861;53.422;14.530;2024-03-06T07:52:33;50.83;;;20.52;;
66095;SDS011;53861;53.422;14.530;2024-03-06T07:55:01;48.15;;;20.02;;
66095;SDS011;53861;53.422;14.530;2024-03-06T07:57:31;57.60;;;20.92;;
66095;SDS011;53861;53.422;14.530;2024-03-06T07:59:58;53.75;;;19.98;;
66095;SDS011;53861;53.422;14.530;2024-03-06T08:02:27;52.53;;;19.88;;
66095;SDS011;53861;53.422;14.530;2024-03-06T08:04:55;42.45;;;19.35;;
66095;SDS011;53861;53.422;14.530;2024-03-06T08:07:22;43.55;;;18.95;;
66095;SDS011;53861;53.422;14.530;2024-03-06T08:09:49;54.28;;;20.38;;
66095;SDS011;53861;53.422;14.530;2024-03-06T08:12:17;38.50;;;17.42;;
66095;SDS011;53861;53.422;14.530;2024-03-06T08:14:44;46.60;;;17.92;;
66095;SDS011;53861;53.422;14.530;2024-03-06T08:17:11;42.10;;;17.42;;
66095;SDS011;53861;53.422;14.530;2024-03-06T08:19:40;43.40;;;15.23;;
66095;SDS011;53861;53.422;14.530;2024-03-06T08:22:07;45.45;;;16.90;;
66095;SDS011;53861;53.422;14.530;2024-03-06T08:24:35;39.67;;;15.90;;
66095;SDS011;53861;53.422;14.530;2024-03-06T08:27:02;39.95;;;14.80;;
66095;SDS011;53861;53.422;14.530;2024-03-06T08:29:30;37.53;;;14.98;;
66095;SDS011;53861;53.422;14.530;2024-03-06T08:31:57;41.85;;;14.27;;
66095;SDS011;53861;53.422;14.530;2024-03-06T08:34:26;45.85;;;16.50;;
66095;SDS011;53861;53.422;14.530;2024-03-06T08:36:55;32.20;;;14.07;;
66095;SDS011;53861;53.422;14.530;2024-03-06T08:39:22;31.15;;;13.63;;
66095;SDS011;53861;53.422;14.530;2024-03-06T08:41:50;34.33;;;13.00;;
66095;SDS011;53861;53.422;14.530;2024-03-06T08:44:18;30.77;;;14.07;;
66095;SDS011;53861;53.422;14.530;2024-03-06T08:46:46;38.13;;;15.27;;
66095;SDS011;53861;53.422;14.530;2024-03-06T08:49:13;45.60;;;15.20;;
66095;SDS011;53861;53.422;14.530;2024-03-06T08:51:40;38.58;;;14.40;;
66095;SDS011;53861;53.422;14.530;2024-03-06T08:54:09;30.25;;;12.68;;
66095;SDS011;53861;53.422;14.530;2024-03-06T08:56:37;35.53;;;12.75;;
66095;SDS011;53861;53.422;14.530;2024-03-06T08:59:04;40.40;;;13.60;;
66095;SDS011;53861;53.422;14.530;2024-03-06T09:01:31;32.00;;;13.07;;
66095;SDS011;53861;53.422;14.530;2024-03-06T09:03:58;38.00;;;13.10;;
66095;SDS011;53861;53.422;14.530;2024-03-06T09:06:26;35.40;;;14.13;;
66095;SDS011;53861;53.422;14.530;2024-03-06T09:08:54;34.20;;;13.93;;
66095;SDS011;53861;53.422;14.530;2024-03-06T09:11:23;33.10;;;13.90;;
66095;SDS011;53861;53.422;14.530;2024-03-06T09:13:50;39.08;;;14.20;;
66095;SDS011;53861;53.422;14.530;2024-03-06T09:16:18;34.30;;;13.35;;
66095;SDS011;53861;53.422;14.530;2024-03-06T09:18:45;49.65;;;14.70;;
66095;SDS011;53861;53.422;14.530;2024-03-06T09:21:12;39.90;;;14.10;;
66095;SDS011;53861;53.422;14.530;2024-03-06T09:23:40;35.72;;;13.93;;
66095;SDS011;53861;53.422;14.530;2024-03-06T09:26:07;41.30;;;13.73;;
66095;SDS011;53861;53.422;14.530;2024-03-06T09:28:38;36.83;;;15.40;;
66095;SDS011;53861;53.422;14.530;2024-03-06T09:31:05;35.08;;;13.35;;
66095;SDS011;53861;53.422;14.530;2024-03-06T09:33:32;34.92;;;13.65;;
66095;SDS011;53861;53.422;14.530;2024-03-06T09:36:00;32.42;;;13.65;;
66095;SDS011;53861;53.422;14.530;2024-03-06T09:38:27;28.60;;;12.57;;
66095;SDS011;53861;53.422;14.530;2024-03-06T09:40:55;25.23;;;11.90;;
66095;SDS011;53861;53.422;14.530;2024-03-06T09:43:23;34.03;;;13.73;;
66095;SDS011;53861;53.422;14.530;2024-03-06T09:45:52;34.63;;;13.35;;
66095;SDS011;53861;53.422;14.530;2024-03-06T09:48:20;31.58;;;13.13;;
66095;SDS011;53861;53.422;14.530;2024-03-06T09:50:48;33.45;;;13.30;;
66095;SDS011;53861;53.422;14.530;2024-03-06T09:53:16;27.70;;;12.40;;
66095;SDS011;53861;53.422;14.530;2024-03-06T09:55:48;29.08;;;12.23;;
66095;SDS011;53861;53.422;14.530;2024-03-06T09:58:17;26.35;;;11.95;;
66095;SDS011;53861;53.422;14.530;2024-03-06T10:00:44;28.88;;;11.80;;
66095;SDS011;53861;53.422;14.530;2024-03-06T10:03:16;27.10;;;11.25;;
66095;SDS011;53861;53.422;14.530;2024-03-06T10:05:43;26.67;;;11.40;;
66095;SDS011;53861;53.422;14.530;2024-03-06T10:08:10;36.70;;;12.75;;
66095;SDS011;53861;53.422;14.530;2024-03-06T10:10:42;35.90;;;12.90;;
66095;SDS011;53861;53.422;14.530;2024-03-06T10:13:11;28.10;;;12.35;;
66095;SDS011;53861;53.422;14.530;2024-03-06T10:15:39;24.77;;;11.55;;
66095;SDS011;53861;53.422;14.530;2024-03-06T10:18:10;23.52;;;10.88;;
66095;SDS011;53861;53.422;14.530;2024-03-06T10:20:40;23.63;;;11.02;;
66095;SDS011;53861;53.422;14.530;2024-03-06T10:23:11;33.63;;;11.85;;
66095;SDS011;53861;53.422;14.530;2024-03-06T10:25:39;35.15;;;12.25;;
66095;SDS011;53861;53.422;14.530;2024-03-06T10:28:06;28.17;;;11.93;;
66095;SDS011;53861;53.422;14.530;2024-03-06T10:30:35;28.50;;;12.52;;
66095;SDS011;53861;53.422;14.530;2024-03-06T10:33:03;25.75;;;11.15;;
66095;SDS011;53861;53.422;14.530;2024-03-06T10:35:31;26.73;;;11.43;;
66095;SDS011;53861;53.422;14.530;2024-03-06T10:38:01;29.65;;;12.05;;
66095;SDS011;53861;53.422;14.530;2024-03-06T10:40:30;28.40;;;13.05;;
66095;SDS011;53861;53.422;14.530;2024-03-06T10:42:59;33.63;;;12.80;;
66095;SDS011;53861;53.422;14.530;2024-03-06T10:45:29;36.75;;;13.57;;
66095;SDS011;53861;53.422;14.530;2024-03-06T10:48:05;28.55;;;12.43;;
66095;SDS011;53861;53.422;14.530;2024-03-06T10:50:36;28.63;;;13.45;;
66095;SDS011;53861;53.422;14.530;2024-03-06T10:53:09;29.33;;;11.95;;
66095;SDS011;53861;53.422;14.530;2024-03-06T10:55:37;25.13;;;10.93;;
66095;SDS011;53861;53.422;14.530;2024-03-06T10:58:04;26.65;;;12.18;;
66095;SDS011;53861;53.422;14.530;2024-03-06T11:00:35;30.50;;;12.20;;
66095;SDS011;53861;53.422;14.530;2024-03-06T11:03:05;25.50;;;11.98;;
66095;SDS011;53861;53.422;14.530;2024-03-06T11:05:35;27.90;;;12.88;;
66095;SDS011;53861;53.422;14.530;2024-03-06T11:08:05;29.67;;;12.50;;
66095;SDS011;53861;53.422;14.530;2024-03-06T11:10:36;33.13;;;12.68;;
66095;SDS011;53861;53.422;14.530;2024-03-06T11:13:08;27.02;;;11.07;;
66095;SDS011;53861;53.422;14.530;2024-03-06T11:15:48;26.75;;;12.75;;
66095;SDS011;53861;53.422;14.530;2024-03-06T11:21:28;34.67;;;13.87;;
66095;SDS011;53861;53.422;14.530;2024-03-06T11:24:12;26.33;;;12.10;;
66095;SDS011;53861;53.422;14.530;2024-03-06T11:26:47;26.50;;;12.95;;
66095;SDS011;53861;53.422;14.530;2024-03-06T11:29:15;24.08;;;10.93;;
66095;SDS011;53861;53.422;14.530;2024-03-06T11:31:59;22.83;;;11.98;;
66095;SDS011;53861;53.422;14.530;2024-03-06T11:34:28;27.10;;;12.75;;
66095;SDS011;53861;53.422;14.530;2024-03-06T11:36:57;25.95;;;12.10;;
66095;SDS011;53861;53.422;14.530;2024-03-06T11:39:28;25.70;;;12.23;;
66095;SDS011;53861;53.422;14.530;2024-03-06T11:41:58;27.52;;;13.15;;
66095;SDS011;53861;53.422;14.530;2024-03-06T11:44:26;27.40;;;12.40;;
66095;SDS011;53861;53.422;14.530;2024-03-06T11:46:58;23.70;;;12.15;;
66095;SDS011;53861;53.422;14.530;2024-03-06T11:49:27;25.67;;;12.95;;
66095;SDS011;53861;53.422;14.530;2024-03-06T11:51:57;32.42;;;13.05;;
66095;SDS011;53861;53.422;14.530;2024-03-06T11:54:25;26.70;;;12.48;;
66095;SDS011;53861;53.422;14.530;2024-03-06T11:56:54;27.88;;;13.38;;
66095;SDS011;53861;53.422;14.530;2024-03-06T11:59:24;25.02;;;11.88;;
66095;SDS011;53861;53.422;14.530;2024-03-06T12:01:52;30.42;;;13.20;;
66095;SDS011;53861;53.422;14.530;2024-03-06T12:04:19;28.33;;;13.27;;
66095;SDS011;53861;53.422;14.530;2024-03-06T12:06:48;24.45;;;12.18;;
66095;SDS011;53861;53.422;14.530;2024-03-06T12:09:15;29.63;;;13.20;;
66095;SDS011;53861;53.422;14.530;2024-03-06T12:11:43;23.70;;;11.95;;
66095;SDS011;53861;53.422;14.530;2024-03-06T12:14:14;27.42;;;12.43;;
66095;SDS011;53861;53.422;14.530;2024-03-06T12:16:53;33.33;;;13.40;;
66095;SDS011;53861;53.422;14.530;2024-03-06T12:19:22;31.90;;;13.48;;
66095;SDS011;53861;53.422;14.530;2024-03-06T12:21:50;31.13;;;13.07;;
66095;SDS011;53861;53.422;14.530;2024-03-06T12:24:19;28.55;;;12.52;;
66095;SDS011;53861;53.422;14.530;2024-03-06T12:26:47;25.83;;;13.02;;
66095;SDS011;53861;53.422;14.530;2024-03-06T12:29:27;32.03;;;13.20;;
66095;SDS011;53861;53.422;14.530;2024-03-06T12:31:57;29.00;;;14.15;;
66095;SDS011;53861;53.422;14.530;2024-03-06T12:34:25;29.05;;;14.23;;
66095;SDS011;53861;53.422;14.530;2024-03-06T12:36:54;34.08;;;14.15;;
66095;SDS011;53861;53.422;14.530;2024-03-06T12:39:23;29.98;;;14.40;;
66095;SDS011;53861;53.422;14.530;2024-03-06T12:41:50;37.60;;;14.82;;
66095;SDS011;53861;53.422;14.530;2024-03-06T12:44:19;32.60;;;14.73;;
66095;SDS011;53861;53.422;14.530;2024-03-06T12:46:46;41.20;;;17.13;;
66095;SDS011;53861;53.422;14.530;2024-03-06T12:49:15;46.10;;;19.13;;
66095;SDS011;53861;53.422;14.530;2024-03-06T12:51:44;51.65;;;20.25;;
66095;SDS011;53861;53.422;14.530;2024-03-06T12:54:12;62.08;;;21.35;;
66095;SDS011;53861;53.422;14.530;2024-03-06T12:56:44;64.88;;;20.98;;
66095;SDS011;53861;53.422;14.530;2024-03-06T12:59:12;62.53;;;21.52;;
66095;SDS011;53861;53.422;14.530;2024-03-06T13:01:39;61.35;;;21.13;;
66095;SDS011;53861;53.422;14.530;2024-03-06T13:04:07;69.30;;;23.50;;
66095;SDS011;53861;53.422;14.530;2024-03-06T13:06:37;87.53;;;25.90;;
66095;SDS011;53861;53.422;14.530;2024-03-06T13:09:06;78.45;;;27.08;;
66095;SDS011;53861;53.422;14.530;2024-03-06T13:11:33;79.25;;;26.33;;
66095;SDS011;53861;53.422;14.530;2024-03-06T13:14:00;74.97;;;25.08;;
66095;SDS011;53861;53.422;14.530;2024-03-06T13:16:28;73.32;;;26.17;;
66095;SDS011;53861;53.422;14.530;2024-03-06T13:18:55;88.28;;;25.88;;
66095;SDS011;53861;53.422;14.530;2024-03-06T13:21:22;87.35;;;28.98;;
66095;SDS011;53861;53.422;14.530;2024-03-06T13:23:51;90.68;;;28.13;;
66095;SDS011;53861;53.422;14.530;2024-03-06T13:26:19;85.78;;;24.85;;
66095;SDS011;53861;53.422;14.530;2024-03-06T13:28:46;80.93;;;26.15;;
66095;SDS011;53861;53.422;14.530;2024-03-06T13:31:14;93.45;;;27.25;;
66095;SDS011;53861;53.422;14.530;2024-03-06T13:33:41;112.07;;;28.58;;
66095;SDS011;53861;53.422;14.530;2024-03-06T13:36:08;142.77;;;31.75;;
66095;SDS011;53861;53.422;14.530;2024-03-06T13:38:36;128.02;;;30.05;;
66095;SDS011;53861;53.422;14.530;2024-03-06T13:41:05;122.75;;;29.85;;
66095;SDS011;53861;53.422;14.530;2024-03-06T13:43:32;109.25;;;27.83;;
66095;SDS011;53861;53.422;14.530;2024-03-06T13:45:59;118.13;;;29.13;;
66095;SDS011;53861;53.422;14.530;2024-03-06T13:48:28;98.30;;;27.67;;
66095;SDS011;53861;53.422;14.530;2024-03-06T13:50:56;106.85;;;28.33;;
66095;SDS011;53861;53.422;14.530;2024-03-06T13:53:23;103.35;;;27.83;;
66095;SDS011;53861;53.422;14.530;2024-03-06T13:55:50;99.03;;;28.95;;
66095;SDS011;53861;53.422;14.530;2024-03-06T13:58:20;113.18;;;30.98;;
66095;SDS011;53861;53.422;14.530;2024-03-06T14:00:47;110.22;;;31.15;;
66095;SDS011;53861;53.422;14.530;2024-03-06T14:03:16;114.05;;;31.88;;
66095;SDS011;53861;53.422;14.530;2024-03-06T14:05:44;103.05;;;28.55;;
66095;SDS011;53861;53.422;14.530;2024-03-06T14:08:11;93.35;;;28.52;;
66095;SDS011;53861;53.422;14.530;2024-03-06T14:10:39;96.57;;;29.27;;
66095;SDS011;53861;53.422;14.530;2024-03-06T14:13:06;91.68;;;29.33;;
66095;SDS011;53861;53.422;14.530;2024-03-06T14:15:36;77.10;;;26.83;;
66095;SDS011;53861;53.422;14.530;2024-03-06T14:18:04;81.70;;;26.90;;
66095;SDS011;53861;53.422;14.530;2024-03-06T14:20:31;102.70;;;29.70;;
66095;SDS011;53861;53.422;14.530;2024-03-06T14:22:59;117.95;;;30.90;;